Time;durP1;ratioP1;P1;durP2;ratioP2;P2;SDS_P1;SDS_P2;PMS_P1;PMS_P2;Temp;Humidity;BMP_temperature;BMP_pressure;BME280_temperature;BME280_humidity;BME280_pressure;Samples;Min_cycle;Max_cycle;Signal;HPM_P1;HPM_P2
2023/03/25 00:01:24;;;;;;;15.77;12.85;;;13.50;99.90;;;;;;4591316;19;20010;-30
2023/03/25 00:02:55;;;;;;;14.77;11.53;;;13.50;99.90;;;;;;4591064;19;20456;-30
2023/03/25 00:04:27;;;;;;;;;;;13.40;99.90;;;;;;4591729;19;20034;-31
2023/03/25 00:05:58;;;;;;;19.03;13.57;;;13.50;99.90;;;;;;4591183;19;19943;-32
2023/03/25 00:07:30;;;;;;;17.63;13.00;;;13.50;99.90;;;;;;4591419;19;20008;-29
2023/03/25 00:09:03;;;;;;;16.87;13.53;;;13.50;99.90;;;;;;4590527;19;20031;-30
2023/03/25 00:10:35;;;;;;;18.67;13.53;;;13.40;99.90;;;;;;4590885;19;20010;-30
2023/03/25 00:12:07;;;;;;;17.65;13.55;;;13.40;99.90;;;;;;4589402;19;20011;-30
2023/03/25 00:13:39;;;;;;;18.48;12.82;;;13.40;99.90;;;;;;4590439;19;20042;-30
2023/03/25 00:15:11;;;;;;;18.20;12.70;;;13.40;99.90;;;;;;4590410;19;20402;-30
2023/03/25 00:16:47;;;;;;;17.70;12.27;;;13.40;99.90;;;;;;4590591;19;20017;-30
2023/03/25 00:18:19;;;;;;;17.47;12.80;;;13.40;99.90;;;;;;4590499;19;20022;-32
2023/03/25 00:19:51;;;;;;;19.43;13.67;;;13.40;99.90;;;;;;4590915;19;20014;-31
2023/03/25 00:21:24;;;;;;;16.43;12.00;;;13.40;99.90;;;;;;4589783;19;20014;-33
2023/03/25 00:22:55;;;;;;;17.98;13.50;;;13.40;99.90;;;;;;4590813;19;20451;-30
2023/03/25 00:24:26;;;;;;;17.33;14.05;;;13.40;99.90;;;;;;4590937;19;20034;-31
2023/03/25 00:26:01;;;;;;;18.13;13.90;;;13.40;99.90;;;;;;4590953;19;20031;-34
2023/03/25 00:27:35;;;;;;;17.70;12.60;;;13.40;99.90;;;;;;4590580;19;20015;-31
2023/03/25 00:29:06;;;;;;;;;;;13.40;99.90;;;;;;4591622;19;20330;-31
2023/03/25 00:30:37;;;;;;;18.13;13.13;;;13.40;99.90;;;;;;4590425;19;19943;-30
2023/03/25 00:32:11;;;;;;;19.40;14.93;;;13.40;99.90;;;;;;4590844;19;20503;-32
2023/03/25 00:33:43;;;;;;;17.53;13.80;;;13.40;99.90;;;;;;4589574;19;20011;-31
2023/03/25 00:35:18;;;;;;;16.33;13.00;;;13.30;99.90;;;;;;4590587;19;20026;-31
2023/03/25 00:36:49;;;;;;;16.30;13.37;;;13.30;99.90;;;;;;4590403;19;20018;-29
2023/03/25 00:38:23;;;;;;;19.48;14.50;;;13.30;99.90;;;;;;4590082;19;20010;-29
2023/03/25 00:39:55;;;;;;;21.87;15.30;;;13.40;99.90;;;;;;4590074;19;20107;-31
2023/03/25 00:41:29;;;;;;;19.17;14.00;;;13.30;99.90;;;;;;4589894;19;20014;-30
2023/03/25 00:43:02;;;;;;;19.43;13.47;;;13.30;99.90;;;;;;4590760;19;20456;-30
2023/03/25 00:44:34;;;;;;;16.73;13.23;;;13.30;99.90;;;;;;4590112;19;20011;-31
2023/03/25 00:46:06;;;;;;;19.10;14.30;;;13.30;99.90;;;;;;4589834;19;20167;-30
2023/03/25 00:47:37;;;;;;;22.58;14.43;;;13.30;99.90;;;;;;4590223;19;20022;-32
2023/03/25 00:49:11;;;;;;;18.40;13.80;;;13.20;99.90;;;;;;4590653;19;20090;-30
2023/03/25 00:50:42;;;;;;;23.37;15.37;;;13.20;99.90;;;;;;4589958;19;20037;-30
2023/03/25 00:52:15;;;;;;;18.53;13.77;;;13.30;99.90;;;;;;4590227;19;20087;-30
2023/03/25 00:53:52;;;;;;;19.47;14.47;;;13.30;99.90;;;;;;4590679;19;20011;-32
2023/03/25 00:55:24;;;;;;;17.10;13.10;;;13.30;99.90;;;;;;4590525;19;20340;-32
2023/03/25 00:56:55;;;;;;;16.58;12.43;;;13.20;99.90;;;;;;4589724;19;20029;-30
2023/03/25 00:58:28;;;;;;;17.27;13.67;;;13.20;99.90;;;;;;4589729;19;20074;-30
2023/03/25 01:00:06;;;;;;;17.60;13.60;;;13.20;99.90;;;;;;4589812;19;20032;-30
2023/03/25 01:01:38;;;;;;;18.57;13.93;;;13.20;99.90;;;;;;4590227;19;19999;-32
2023/03/25 01:03:11;;;;;;;16.60;13.03;;;13.20;99.90;;;;;;4588406;19;20374;-30
2023/03/25 01:04:44;;;;;;;16.43;13.33;;;13.20;99.90;;;;;;4589715;19;20017;-34
2023/03/25 01:06:20;;;;;;;21.20;13.17;;;13.20;99.90;;;;;;4590029;19;20013;-30
2023/03/25 01:07:52;;;;;;;16.40;12.93;;;13.20;99.90;;;;;;4588820;19;20015;-33
2023/03/25 01:09:24;;;;;;;15.48;12.68;;;13.20;99.90;;;;;;4589222;19;20030;-30
2023/03/25 01:10:55;;;;;;;17.90;14.13;;;13.20;99.90;;;;;;4593425;19;20070;-32
2023/03/25 01:12:26;;;;;;;19.27;13.48;;;13.20;99.90;;;;;;4594833;19;20010;-31
2023/03/25 01:13:59;;;;;;;18.83;14.43;;;13.20;99.90;;;;;;4594506;19;20018;-30
2023/03/25 01:15:30;;;;;;;17.88;14.00;;;13.20;99.90;;;;;;4593068;19;20086;-31
2023/03/25 01:17:03;;;;;;;18.73;14.93;;;13.20;99.90;;;;;;4594125;19;20010;-30
2023/03/25 01:18:36;;;;;;;18.40;14.10;;;13.20;99.90;;;;;;4594388;19;20025;-30
2023/03/25 01:20:10;;;;;;;17.63;13.20;;;13.30;99.90;;;;;;4595063;19;20007;-30
2023/03/25 01:21:41;;;;;;;19.95;13.45;;;13.30;99.90;;;;;;4592592;19;20015;-33
2023/03/25 01:23:12;;;;;;;17.42;13.65;;;13.30;99.90;;;;;;4594249;19;20368;-33
2023/03/25 01:24:43;;;;;;;16.48;13.07;;;13.20;99.90;;;;;;4594710;19;20003;-30
2023/03/25 01:26:16;;;;;;;15.87;13.03;;;13.20;99.90;;;;;;4593843;19;20069;-30
2023/03/25 01:27:48;;;;;;;;;;;13.20;99.90;;;;;;4593794;19;20014;-32
2023/03/25 01:29:19;;;;;;;15.97;12.90;;;13.30;99.90;;;;;;4593656;19;19915;-30
2023/03/25 01:30:50;;;;;;;17.77;13.85;;;13.30;99.90;;;;;;4592978;19;20020;-32
2023/03/25 01:32:22;;;;;;;15.70;12.98;;;13.30;99.90;;;;;;4593375;19;20082;-32
2023/03/25 01:33:56;;;;;;;14.37;12.73;;;13.30;99.90;;;;;;4594188;19;20344;-31
2023/03/25 01:35:29;;;;;;;15.37;12.83;;;13.30;99.90;;;;;;4594336;19;20003;-31
2023/03/25 01:37:01;;;;;;;15.10;12.17;;;13.20;99.90;;;;;;4594123;19;20361;-30
2023/03/25 01:38:35;;;;;;;16.50;12.93;;;13.20;99.90;;;;;;4593612;19;20340;-33
2023/03/25 01:40:09;;;;;;;16.50;13.07;;;13.20;99.90;;;;;;4593727;19;20038;-31
2023/03/25 01:41:40;;;;;;;16.93;13.63;;;13.20;99.90;;;;;;4593728;19;20464;-31
2023/03/25 01:43:12;;;;;;;17.73;12.68;;;13.20;99.90;;;;;;4593801;19;20044;-31
2023/03/25 01:44:43;;;;;;;15.63;11.87;;;13.20;99.90;;;;;;4593665;19;20027;-31
2023/03/25 01:46:16;;;;;;;16.10;12.98;;;13.20;99.90;;;;;;4592855;19;20007;-30
2023/03/25 01:47:51;;;;;;;16.53;12.10;;;13.20;99.90;;;;;;4593572;19;20007;-31
2023/03/25 01:49:25;;;;;;;16.87;12.47;;;13.20;99.90;;;;;;4592633;19;20377;-30
2023/03/25 01:51:01;;;;;;;16.60;12.53;;;13.20;99.90;;;;;;4593461;19;20358;-30
2023/03/25 01:52:32;;;;;;;18.53;12.97;;;13.20;99.90;;;;;;4592436;19;20010;-31
2023/03/25 01:54:05;;;;;;;16.47;14.40;;;13.20;99.90;;;;;;4592712;19;20329;-30
2023/03/25 01:55:36;;;;;;;16.67;14.88;;;13.20;99.90;;;;;;4591379;19;20022;-30
2023/03/25 01:57:10;;;;;;;17.80;14.60;;;13.20;99.90;;;;;;4591301;19;20010;-31
2023/03/25 01:58:42;;;;;;;18.13;13.63;;;13.20;99.90;;;;;;4591605;19;20408;-31
2023/03/25 02:00:15;;;;;;;15.70;12.27;;;13.20;99.90;;;;;;4591448;19;20094;-30
2023/03/25 02:01:48;;;;;;;15.80;13.73;;;13.20;99.90;;;;;;4591346;19;20502;-31
2023/03/25 02:03:20;;;;;;;19.05;13.70;;;13.20;99.90;;;;;;4591183;19;20015;-32
2023/03/25 02:04:59;;;;;;;19.27;13.20;;;13.20;99.90;;;;;;4591134;19;20393;-33
2023/03/25 02:06:33;;;;;;;16.43;12.97;;;13.20;99.90;;;;;;4591364;19;20393;-31
2023/03/25 02:08:07;;;;;;;17.57;13.53;;;13.20;99.90;;;;;;4591454;19;20015;-30
2023/03/25 02:09:40;;;;;;;17.00;13.87;;;13.20;99.90;;;;;;4590721;19;20337;-31
2023/03/25 02:11:11;;;;;;;16.38;13.38;;;13.10;99.90;;;;;;4590941;19;20086;-30
2023/03/25 02:12:44;;;;;;;16.93;12.23;;;13.20;99.90;;;;;;4591045;19;20006;-32
2023/03/25 02:14:19;;;;;;;15.43;12.63;;;13.20;99.90;;;;;;4591633;19;20034;-32
2023/03/25 02:16:12;;;;;;;15.93;13.50;;;13.10;99.90;;;;;;4591186;19;20014;-31
2023/03/25 02:18:28;;;;;;;15.68;12.40;;;13.20;99.90;;;;;;4591232;19;20011;-32
2023/03/25 02:20:18;;;;;;;15.87;12.57;;;13.20;99.90;;;;;;4590864;19;20023;-30
2023/03/25 02:22:16;;;;;;;16.53;12.40;;;13.20;99.90;;;;;;4587029;19;20015;-32
2023/03/25 02:24:07;;;;;;;17.90;13.00;;;13.20;99.90;;;;;;4590780;19;20013;-32
2023/03/25 02:25:55;;;;;;;16.70;12.07;;;13.20;99.90;;;;;;4590431;19;20019;-31
2023/03/25 02:28:04;;;;;;;14.83;11.77;;;13.20;99.90;;;;;;4590445;19;20011;-30
2023/03/25 02:30:15;;;;;;;15.67;12.33;;;13.20;99.90;;;;;;4590789;19;20102;-33
2023/03/25 02:31:53;;;;;;;16.87;11.97;;;13.10;99.90;;;;;;4590673;19;20019;-30
2023/03/25 02:33:37;;;;;;;17.20;12.10;;;13.10;99.90;;;;;;4590405;19;20386;-30
2023/03/25 02:35:17;;;;;;;16.93;12.17;;;13.10;99.90;;;;;;4590730;19;20007;-29
2023/03/25 02:37:10;;;;;;;12.85;10.98;;;13.20;99.90;;;;;;4590425;19;20099;-31
2023/03/25 02:38:57;;;;;;;16.37;12.13;;;13.10;99.90;;;;;;4590222;19;20010;-32
2023/03/25 02:40:51;;;;;;;17.50;13.13;;;13.20;99.90;;;;;;4590240;19;20019;-30
2023/03/25 02:42:38;;;;;;;17.50;13.30;;;13.20;99.90;;;;;;4589125;19;20429;-30
2023/03/25 02:44:19;;;;;;;15.73;12.17;;;13.10;99.90;;;;;;4590028;19;20035;-30
2023/03/25 02:45:51;;;;;;;18.90;13.53;;;13.10;99.90;;;;;;4590709;19;19999;-30
2023/03/25 02:47:23;;;;;;;16.13;12.43;;;13.20;99.90;;;;;;4590006;19;20013;-30
2023/03/25 02:48:57;;;;;;;16.07;12.63;;;13.10;99.90;;;;;;4590326;19;20007;-30
2023/03/25 02:50:52;;;;;;;15.80;12.37;;;13.10;99.90;;;;;;4589971;19;20007;-32
2023/03/25 02:52:42;;;;;;;14.40;12.47;;;13.10;99.90;;;;;;4588101;19;20014;-33
2023/03/25 02:54:14;;;;;;;15.60;12.43;;;13.20;99.90;;;;;;4590325;19;20097;-29
2023/03/25 02:55:48;;;;;;;18.40;13.03;;;13.10;99.90;;;;;;4589731;19;20014;-30
2023/03/25 02:57:19;;;;;;;19.43;14.77;;;13.10;99.90;;;;;;4589864;19;20010;-32
2023/03/25 02:58:54;;;;;;;15.55;11.38;;;13.20;99.90;;;;;;4589381;19;20018;-31
2023/03/25 03:00:27;;;;;;;16.73;12.70;;;13.10;99.90;;;;;;4589996;19;20088;-32
2023/03/25 03:02:00;;;;;;;17.60;12.33;;;13.10;99.90;;;;;;4589159;19;20010;-33
2023/03/25 03:03:32;;;;;;;15.03;12.60;;;13.10;99.90;;;;;;4589602;19;20033;-30
2023/03/25 03:05:21;;;;;;;16.67;12.33;;;13.10;99.90;;;;;;4589689;19;20342;-30
2023/03/25 03:06:53;;;;;;;15.90;12.10;;;13.10;99.90;;;;;;4589590;19;19999;-31
2023/03/25 03:08:50;;;;;;;15.73;11.97;;;13.10;99.90;;;;;;4589858;19;20039;-30
2023/03/25 03:10:25;;;;;;;14.30;11.53;;;13.20;99.90;;;;;;4591696;19;20010;-30
2023/03/25 03:12:16;;;;;;;13.40;11.33;;;13.20;99.90;;;;;;4590800;19;20016;-31
2023/03/25 03:14:19;;;;;;;14.13;11.37;;;13.20;99.90;;;;;;4589698;19;20021;-30
2023/03/25 03:16:08;;;;;;;14.77;10.90;;;13.20;99.90;;;;;;4589640;19;20010;-31
2023/03/25 03:17:56;;;;;;;15.97;11.80;;;13.10;99.90;;;;;;4589841;19;20007;-30
2023/03/25 03:19:45;;;;;;;13.90;11.07;;;13.10;99.90;;;;;;4589890;19;20018;-30
2023/03/25 03:21:22;;;;;;;13.60;11.23;;;13.10;99.90;;;;;;4589404;19;20013;-31
2023/03/25 03:23:09;;;;;;;15.43;11.73;;;13.10;99.90;;;;;;4589242;19;20050;-32
2023/03/25 03:24:50;;;;;;;13.93;11.37;;;13.10;99.90;;;;;;4589473;19;20025;-32
2023/03/25 03:26:48;;;;;;;15.87;12.10;;;13.10;99.90;;;;;;4589791;19;20017;-30
2023/03/25 03:28:32;;;;;;;15.10;11.33;;;13.10;99.90;;;;;;4589318;19;20018;-30
2023/03/25 03:30:38;;;;;;;15.30;11.83;;;13.10;99.90;;;;;;4589594;19;20010;-30
2023/03/25 03:32:16;;;;;;;16.60;11.80;;;13.10;99.90;;;;;;4589127;19;20014;-30
2023/03/25 03:33:52;;;;;;;14.03;10.87;;;13.10;99.90;;;;;;4589302;19;19994;-30
2023/03/25 03:35:30;;;;;;;14.93;12.73;;;13.10;99.90;;;;;;4589214;19;20484;-30
2023/03/25 03:37:01;;;;;;;18.63;12.07;;;13.10;99.90;;;;;;4588911;19;20020;-29
2023/03/25 03:38:40;;;;;;;17.20;12.47;;;13.10;99.90;;;;;;4588948;19;20062;-31
2023/03/25 03:40:16;;;;;;;13.83;11.07;;;13.00;99.90;;;;;;4589575;19;20006;-30
2023/03/25 03:41:51;;;;;;;15.30;11.97;;;13.10;99.90;;;;;;4589071;19;20050;-30
2023/03/25 03:43:30;;;;;;;15.63;10.80;;;13.10;99.90;;;;;;4589037;19;20374;-31
2023/03/25 03:45:07;;;;;;;15.47;11.87;;;13.00;99.90;;;;;;4589028;19;20013;-31
2023/03/25 03:46:47;;;;;;;15.67;12.20;;;13.00;99.90;;;;;;4588543;19;20094;-31
2023/03/25 03:48:30;;;;;;;14.37;11.90;;;13.00;99.90;;;;;;4589544;19;20010;-30
2023/03/25 03:50:08;;;;;;;13.60;11.07;;;13.00;99.90;;;;;;4589146;19;20144;-33
2023/03/25 03:51:48;;;;;;;15.47;12.53;;;13.00;99.90;;;;;;4588921;19;20014;-30
2023/03/25 03:53:34;;;;;;;14.20;11.57;;;13.00;99.90;;;;;;4589248;19;20007;-31
2023/03/25 03:55:12;;;;;;;14.40;10.97;;;13.00;99.90;;;;;;4589133;19;20014;-30
2023/03/25 03:56:52;;;;;;;14.17;10.63;;;13.00;99.90;;;;;;4589276;19;20524;-32
2023/03/25 03:58:28;;;;;;;17.63;12.00;;;13.00;99.90;;;;;;4588785;19;20498;-30
2023/03/25 04:00:06;;;;;;;16.07;11.67;;;13.00;99.90;;;;;;4588732;19;20014;-31
2023/03/25 04:01:44;;;;;;;13.93;11.20;;;13.00;99.90;;;;;;4588772;19;20562;-31
2023/03/25 04:03:24;;;;;;;15.77;12.07;;;13.00;99.90;;;;;;4588857;19;20023;-30
2023/03/25 04:04:59;;;;;;;14.93;11.67;;;13.00;99.90;;;;;;4589563;19;20018;-33
2023/03/25 04:06:40;;;;;;;12.67;10.43;;;13.10;99.90;;;;;;4588516;19;20014;-30
2023/03/25 04:08:30;;;;;;;13.47;10.80;;;13.00;99.90;;;;;;4588492;19;20056;-30
2023/03/25 04:10:13;;;;;;;14.23;11.17;;;13.10;99.90;;;;;;4590131;19;20011;-29
2023/03/25 04:11:57;;;;;;;15.07;12.63;;;13.00;99.90;;;;;;4589581;19;20014;-31
2023/03/25 04:13:37;;;;;;;17.50;14.43;;;13.00;99.90;;;;;;4589454;19;20014;-32
2023/03/25 04:15:09;;;;;;;13.10;10.83;;;13.00;99.90;;;;;;4590099;19;20003;-32
2023/03/25 04:16:44;;;;;;;14.47;10.63;;;13.00;99.90;;;;;;4589465;19;20010;-30
2023/03/25 04:18:22;;;;;;;13.07;10.77;;;13.00;99.90;;;;;;4590355;19;20011;-33
2023/03/25 04:19:53;;;;;;;17.77;11.70;;;13.00;99.90;;;;;;4590386;19;20017;-30
2023/03/25 04:21:25;;;;;;;16.00;11.43;;;13.00;99.90;;;;;;4588599;19;20439;-30
2023/03/25 04:22:56;;;;;;;14.18;11.20;;;13.00;99.90;;;;;;4589242;19;20038;-31
2023/03/25 04:24:32;;;;;;;16.27;13.00;;;13.00;99.90;;;;;;4590224;19;20334;-30
2023/03/25 04:26:05;;;;;;;14.83;11.43;;;13.00;99.90;;;;;;4590833;19;20554;-30
2023/03/25 04:27:37;;;;;;;16.10;12.23;;;13.00;99.90;;;;;;4590610;19;20030;-31
2023/03/25 04:29:08;;;;;;;15.00;12.25;;;13.00;99.90;;;;;;4590461;19;20011;-31
2023/03/25 04:30:39;;;;;;;15.50;12.48;;;13.00;99.90;;;;;;4590775;19;20066;-31
2023/03/25 04:32:13;;;;;;;14.93;12.07;;;13.00;99.90;;;;;;4590989;19;20014;-31
2023/03/25 04:33:49;;;;;;;;;;;13.00;99.90;;;;;;4591468;19;20479;-30
2023/03/25 04:35:20;;;;;;;15.60;11.60;;;13.00;99.90;;;;;;4590283;19;19926;-31
2023/03/25 04:36:53;;;;;;;15.03;11.47;;;13.00;99.90;;;;;;4590362;19;20022;-30
2023/03/25 04:38:25;;;;;;;14.60;12.83;;;13.00;99.90;;;;;;4589509;19;20006;-31
2023/03/25 04:39:58;;;;;;;18.42;12.50;;;13.00;99.90;;;;;;4589037;19;20062;-31
2023/03/25 04:41:32;;;;;;;15.47;12.37;;;13.00;99.90;;;;;;4589030;19;20011;-30
2023/03/25 04:43:03;;;;;;;15.50;12.43;;;12.90;99.90;;;;;;4589773;19;20022;-33
2023/03/25 04:44:37;;;;;;;14.77;11.93;;;12.90;99.90;;;;;;4589707;19;20484;-32
2023/03/25 04:46:12;;;;;;;16.17;11.93;;;12.90;99.90;;;;;;4589300;19;20014;-32
2023/03/25 04:47:48;;;;;;;13.57;12.00;;;13.00;99.90;;;;;;4590364;19;20017;-31
2023/03/25 04:49:21;;;;;;;14.40;12.80;;;13.00;99.90;;;;;;4590284;19;20014;-30
2023/03/25 04:50:54;;;;;;;14.77;12.07;;;12.90;99.90;;;;;;4587758;19;19994;-30
2023/03/25 04:52:27;;;;;;;14.53;12.03;;;12.90;99.90;;;;;;4589156;19;20014;-30
2023/03/25 04:53:58;;;;;;;14.25;11.38;;;12.90;99.90;;;;;;4590258;19;20002;-31
2023/03/25 04:55:30;;;;;;;14.90;11.13;;;12.90;99.90;;;;;;4589664;19;20018;-32
2023/03/25 04:57:01;;;;;;;15.50;12.53;;;12.90;99.90;;;;;;4590160;19;20419;-31
2023/03/25 04:58:35;;;;;;;16.23;11.60;;;12.90;99.90;;;;;;4589869;19;20067;-31
2023/03/25 05:00:09;;;;;;;15.23;11.60;;;12.90;99.90;;;;;;4589831;19;20381;-30
2023/03/25 05:01:44;;;;;;;18.87;12.83;;;12.90;99.90;;;;;;4589022;19;20448;-31
2023/03/25 05:03:23;;;;;;;15.87;11.77;;;12.90;99.90;;;;;;4589499;19;20054;-32
2023/03/25 05:05:01;;;;;;;15.60;11.83;;;12.90;99.90;;;;;;4589437;19;20014;-31
2023/03/25 05:06:33;;;;;;;15.03;10.63;;;12.90;99.90;;;;;;4589926;19;20022;-32
2023/03/25 05:08:04;;;;;;;16.43;12.30;;;12.90;99.90;;;;;;4590008;19;20034;-35
2023/03/25 05:09:35;;;;;;;13.50;11.20;;;12.80;99.90;;;;;;4590133;19;20010;-33
2023/03/25 05:11:07;;;;;;;16.92;11.80;;;12.80;99.90;;;;;;4590354;19;20022;-31
2023/03/25 05:12:38;;;;;;;15.98;11.45;;;12.80;99.90;;;;;;4588480;19;20022;-33
2023/03/25 05:14:11;;;;;;;14.80;11.53;;;12.80;99.90;;;;;;4589083;19;19999;-33
2023/03/25 05:15:44;;;;;;;19.03;11.33;;;12.80;99.90;;;;;;4590279;19;20011;-33
2023/03/25 05:17:18;;;;;;;15.43;11.63;;;12.80;99.90;;;;;;4588347;19;20014;-33
2023/03/25 05:18:50;;;;;;;13.43;11.57;;;12.80;99.90;;;;;;4591385;19;20014;-30
2023/03/25 05:20:23;;;;;;;15.80;11.70;;;12.80;99.90;;;;;;4590593;19;20006;-33
2023/03/25 05:21:56;;;;;;;14.03;11.80;;;12.80;99.90;;;;;;4586756;19;20047;-30
2023/03/25 05:23:27;;;;;;;16.15;11.85;;;12.80;99.90;;;;;;4588665;19;20655;-31
2023/03/25 05:25:01;;;;;;;;;;;12.80;99.90;;;;;;4590053;19;20006;-33
2023/03/25 05:26:33;;;;;;;14.97;11.30;;;12.80;99.90;;;;;;4588301;19;20342;-30
2023/03/25 05:28:08;;;;;;;16.23;12.97;;;12.80;99.90;;;;;;4587908;19;20010;-30
2023/03/25 05:29:43;;;;;;;17.07;12.80;;;12.90;99.90;;;;;;4588370;19;20022;-31
2023/03/25 05:31:14;;;;;;;17.63;13.40;;;12.90;99.90;;;;;;4588107;19;20460;-30
2023/03/25 05:32:49;;;;;;;17.30;13.70;;;12.90;99.90;;;;;;4587872;19;20488;-30
2023/03/25 05:34:21;;;;;;;15.80;12.83;;;12.90;99.90;;;;;;4588138;19;20010;-30
2023/03/25 05:35:52;;;;;;;21.38;14.27;;;12.90;99.90;;;;;;4586307;19;20024;-31
2023/03/25 05:37:23;;;;;;;20.08;14.82;;;12.90;99.90;;;;;;4586311;19;20381;-30
2023/03/25 05:38:55;;;;;;;21.13;15.40;;;12.90;99.90;;;;;;4589134;19;20015;-33
2023/03/25 05:40:26;;;;;;;17.55;15.10;;;12.90;99.90;;;;;;4589665;19;20015;-30
2023/03/25 05:42:01;;;;;;;18.42;14.32;;;12.90;99.90;;;;;;4588776;19;20015;-30
2023/03/25 05:43:34;;;;;;;20.33;13.77;;;12.90;99.90;;;;;;4588904;19;20022;-31
2023/03/25 05:45:06;;;;;;;15.38;13.02;;;12.90;99.90;;;;;;4589052;19;20011;-30
2023/03/25 05:46:37;;;;;;;19.23;13.30;;;12.90;99.90;;;;;;4587614;19;20010;-31
2023/03/25 05:48:09;;;;;;;;;;;12.90;99.90;;;;;;4586704;19;20017;-32
2023/03/25 05:49:40;;;;;;;15.30;12.00;;;12.90;99.90;;;;;;4586826;19;19919;-32
2023/03/25 05:51:14;;;;;;;16.95;11.27;;;13.00;99.90;;;;;;4586044;19;20019;-30
2023/03/25 05:52:48;;;;;;;17.80;13.10;;;13.00;99.90;;;;;;4587707;19;20039;-30
2023/03/25 05:54:20;;;;;;;14.63;12.57;;;13.00;99.90;;;;;;4589178;19;20002;-32
2023/03/25 05:55:51;;;;;;;18.47;12.60;;;13.00;99.90;;;;;;4588816;19;20496;-31
2023/03/25 05:57:23;;;;;;;;;;;13.00;99.90;;;;;;4591387;19;20379;-30
2023/03/25 05:58:55;;;;;;;15.73;11.63;;;12.90;99.90;;;;;;4591311;19;19907;-31
2023/03/25 06:00:26;;;;;;;18.40;12.07;;;12.90;99.90;;;;;;4592129;19;20467;-31
2023/03/25 06:01:59;;;;;;;16.40;12.20;;;12.90;99.90;;;;;;4591629;19;20475;-30
2023/03/25 06:03:33;;;;;;;;;;;12.90;99.90;;;;;;4590954;19;20030;-33
2023/03/25 06:05:12;;;;;;;18.83;11.80;;;12.90;99.90;;;;;;4591133;19;19925;-30
2023/03/25 06:06:44;;;;;;;15.67;12.07;;;12.90;99.90;;;;;;4591769;19;20007;-32
2023/03/25 06:08:16;;;;;;;17.55;12.25;;;12.90;99.90;;;;;;4594188;19;20014;-30
2023/03/25 06:09:48;;;;;;;17.95;12.20;;;12.90;99.90;;;;;;4593739;19;20018;-30
2023/03/25 06:11:19;;;;;;;18.90;13.63;;;12.90;99.90;;;;;;4592439;19;20014;-31
2023/03/25 06:12:54;;;;;;;17.15;13.00;;;12.90;99.90;;;;;;4592097;19;20017;-30
2023/03/25 06:14:25;;;;;;;14.73;11.70;;;12.90;99.90;;;;;;4593581;19;20463;-31
2023/03/25 06:15:58;;;;;;;15.00;11.23;;;12.90;99.90;;;;;;4592742;19;20015;-30
2023/03/25 06:17:32;;;;;;;13.77;11.63;;;12.90;99.90;;;;;;4591850;19;20010;-32
2023/03/25 06:19:03;;;;;;;14.50;11.37;;;12.90;99.90;;;;;;4591749;19;20019;-30
2023/03/25 06:20:34;;;;;;;16.25;10.40;;;12.90;99.90;;;;;;4590935;19;20251;-30
2023/03/25 06:22:10;;;;;;;15.07;11.07;;;12.90;99.90;;;;;;4590639;19;20014;-31
2023/03/25 06:23:41;;;;;;;15.90;11.97;;;12.90;99.90;;;;;;4593475;19;20057;-32
2023/03/25 06:25:16;;;;;;;14.10;11.35;;;12.90;99.90;;;;;;4593930;19;20003;-33
2023/03/25 06:26:47;;;;;;;13.83;10.90;;;12.90;99.90;;;;;;4593885;19;20007;-31
2023/03/25 06:28:18;;;;;;;14.20;10.73;;;13.00;99.90;;;;;;4593054;19;20014;-32
2023/03/25 06:29:51;;;;;;;13.03;10.33;;;13.10;99.90;;;;;;4591787;19;20007;-29
2023/03/25 06:31:25;;;;;;;13.80;11.00;;;13.20;99.90;;;;;;4587359;19;20022;-30
2023/03/25 06:32:58;;;;;;;13.40;11.03;;;13.20;99.90;;;;;;4589840;19;20074;-29
2023/03/25 06:34:32;;;;;;;13.67;10.07;;;13.20;99.90;;;;;;4590221;19;20018;-31
2023/03/25 06:36:05;;;;;;;14.57;10.03;;;13.30;99.90;;;;;;4590566;19;20014;-30
2023/03/25 06:37:38;;;;;;;13.97;10.43;;;13.30;99.90;;;;;;4590594;19;20086;-31
2023/03/25 06:39:12;;;;;;;14.30;10.40;;;13.40;99.90;;;;;;4593944;19;20460;-30
2023/03/25 06:40:43;;;;;;;14.17;10.30;;;13.50;99.90;;;;;;4591178;19;20018;-31
2023/03/25 06:42:14;;;;;;;14.10;10.43;;;13.50;99.90;;;;;;4587645;19;20014;-31
2023/03/25 06:43:47;;;;;;;14.20;10.45;;;13.60;99.90;;;;;;4591375;19;20006;-31
2023/03/25 06:45:17;;;;;;;16.92;10.02;;;13.60;99.90;;;;;;4592049;19;20018;-31
2023/03/25 06:46:48;;;;;;;12.63;9.40;;;13.70;99.90;;;;;;4589987;19;20023;-30
2023/03/25 06:48:20;;;;;;;13.77;10.10;;;13.70;99.90;;;;;;4591703;19;20034;-31
2023/03/25 06:49:51;;;;;;;14.75;10.43;;;13.80;99.90;;;;;;4590939;19;20002;-32
2023/03/25 06:51:22;;;;;;;12.43;10.07;;;13.80;99.90;;;;;;4589655;19;20022;-31
2023/03/25 06:52:54;;;;;;;12.50;9.80;;;13.90;99.90;;;;;;4590550;19;20018;-33
2023/03/25 06:54:26;;;;;;;;;;;13.90;99.90;;;;;;4593805;19;20003;-30
2023/03/25 06:55:57;;;;;;;12.93;10.70;;;13.90;99.90;;;;;;4592929;19;19982;-31
2023/03/25 06:57:28;;;;;;;13.93;10.27;;;13.90;99.90;;;;;;4590849;19;20100;-30
2023/03/25 06:58:59;;;;;;;13.93;9.65;;;13.90;99.90;;;;;;4591289;19;20031;-30
2023/03/25 07:00:31;;;;;;;11.95;10.68;;;13.90;99.90;;;;;;4591430;19;20023;-32
2023/03/25 07:02:03;;;;;;;15.10;10.48;;;13.90;99.90;;;;;;4590537;19;20018;-33
2023/03/25 07:03:35;;;;;;;13.25;9.38;;;13.90;99.90;;;;;;4589546;19;20377;-30
2023/03/25 07:05:06;;;;;;;13.30;9.73;;;13.90;99.90;;;;;;4589935;19;20014;-30
2023/03/25 07:06:39;;;;;;;14.73;10.60;;;14.00;99.90;;;;;;4590266;19;20003;-30
2023/03/25 07:08:10;;;;;;;11.77;9.10;;;14.00;99.90;;;;;;4588180;19;20040;-31
2023/03/25 07:09:41;;;;;;;13.60;10.05;;;14.00;99.90;;;;;;4591970;19;20717;-30
2023/03/25 07:11:13;;;;;;;13.23;10.63;;;14.10;99.90;;;;;;4589898;19;20101;-30
2023/03/25 07:12:44;;;;;;;12.98;8.73;;;14.10;99.90;;;;;;4591489;19;20014;-30
2023/03/25 07:14:17;;;;;;;;;;;14.10;99.90;;;;;;4592665;19;20018;-33
2023/03/25 07:15:49;;;;;;;11.32;8.65;;;14.10;99.90;;;;;;4590797;19;20366;-31
2023/03/25 07:17:22;;;;;;;13.38;9.27;;;14.10;99.90;;;;;;4590718;19;20081;-32
2023/03/25 07:18:57;;;;;;;11.20;8.70;;;14.20;99.90;;;;;;4590752;19;20373;-30
2023/03/25 07:20:29;;;;;;;13.20;9.27;;;14.20;99.90;;;;;;4590133;19;20099;-31
2023/03/25 07:22:00;;;;;;;10.93;8.32;;;14.20;99.90;;;;;;4588749;19;20077;-33
2023/03/25 07:23:31;;;;;;;12.32;8.18;;;14.20;99.90;;;;;;4589803;19;20018;-30
2023/03/25 07:25:04;;;;;;;15.32;8.60;;;14.10;99.90;;;;;;4592689;19;20030;-33
2023/03/25 07:26:35;;;;;;;13.75;8.43;;;14.10;99.90;;;;;;4591639;19;20018;-30
2023/03/25 07:28:07;;;;;;;11.57;8.40;;;14.10;99.90;;;;;;4590110;19;20097;-31
2023/03/25 07:29:39;;;;;;;;;;;14.10;99.90;;;;;;4590976;19;20030;-31
2023/03/25 07:31:11;;;;;;;12.63;7.88;;;14.10;99.90;;;;;;4588538;19;19929;-32
2023/03/25 07:32:45;;;;;;;11.32;8.05;;;14.10;99.90;;;;;;4589704;19;20015;-31
2023/03/25 07:34:17;;;;;;;11.43;7.63;;;14.10;99.90;;;;;;4589717;19;20021;-31
2023/03/25 07:35:50;;;;;;;10.65;8.27;;;14.10;99.90;;;;;;4592511;19;20026;-30
2023/03/25 07:37:21;;;;;;;14.18;7.50;;;14.10;99.90;;;;;;4592406;19;20468;-31
2023/03/25 07:38:53;;;;;;;9.60;7.88;;;14.10;99.90;;;;;;4591752;19;20057;-30
2023/03/25 07:40:24;;;;;;;12.02;8.60;;;14.00;99.90;;;;;;4591274;19;20014;-30
2023/03/25 07:41:55;;;;;;;9.38;7.78;;;14.10;99.90;;;;;;4589760;19;20032;-30
2023/03/25 07:43:27;;;;;;;10.93;7.80;;;14.10;99.90;;;;;;4591774;19;20052;-31
2023/03/25 07:44:59;;;;;;;10.30;7.32;;;14.10;99.90;;;;;;4591567;19;20015;-31
2023/03/25 07:46:30;;;;;;;11.48;7.72;;;14.10;99.90;;;;;;4589726;19;20022;-31
2023/03/25 07:48:02;;;;;;;11.00;7.68;;;14.10;99.90;;;;;;4586662;19;20023;-30
2023/03/25 07:49:33;;;;;;;9.52;7.13;;;14.20;99.90;;;;;;4590277;19;20010;-31
2023/03/25 07:51:04;;;;;;;11.82;7.97;;;14.10;99.90;;;;;;4591011;19;20082;-30
2023/03/25 07:52:36;;;;;;;15.93;7.82;;;14.20;99.90;;;;;;4591048;19;20026;-32
2023/03/25 07:54:07;;;;;;;10.02;7.10;;;14.20;99.90;;;;;;4591174;19;20492;-30
2023/03/25 07:55:38;;;;;;;10.90;6.55;;;14.20;99.90;;;;;;4589856;19;20010;-30
2023/03/25 07:57:10;;;;;;;11.13;7.55;;;14.20;99.90;;;;;;4589035;19;20360;-31
2023/03/25 07:58:43;;;;;;;;;;;14.20;99.90;;;;;;4591776;19;20041;-33
2023/03/25 08:00:14;;;;;;;10.93;7.15;;;14.20;99.90;;;;;;4591266;19;19911;-30
2023/03/25 08:01:45;;;;;;;10.30;6.70;;;14.20;99.90;;;;;;4590882;19;20015;-30
2023/03/25 08:03:17;;;;;;;9.88;8.02;;;14.20;99.90;;;;;;4588773;19;20015;-31
2023/03/25 08:04:49;;;;;;;8.52;6.45;;;14.20;99.90;;;;;;4590494;19;20524;-34
2023/03/25 08:06:21;;;;;;;10.23;6.70;;;14.20;99.90;;;;;;4591256;19;20443;-32